createdAt,value
2018-04-10T00:00:02.663Z,11.68
2018-04-10T00:00:06.666Z,11.68
2018-04-10T00:00:10.756Z,11.68
2018-04-10T00:00:15.059Z,11.68
2018-04-10T00:00:19.150Z,11.68
2018-04-10T00:00:23.458Z,11.68
2018-04-10T00:00:27.762Z,11.67
2018-04-10T00:00:31.957Z,11.68
2018-04-10T00:00:36.160Z,11.68
2018-04-10T00:00:40.269Z,11.67
2018-04-10T00:00:44.261Z,11.68
2018-04-10T00:00:48.459Z,11.68
2018-04-10T00:00:52.554Z,11.67
2018-04-10T00:00:56.649Z,11.68
2018-04-10T00:01:00.753Z,11.67
2018-04-10T00:01:04.643Z,11.67
2018-04-10T00:01:08.532Z,11.66
2018-04-10T00:01:12.623Z,11.67
2018-04-10T00:01:16.828Z,11.67
2018-04-10T00:01:21.024Z,11.67
2018-04-10T00:01:25.229Z,11.67
2018-04-10T00:01:29.110Z,11.67
2018-04-10T00:01:33.421Z,11.67
2018-04-10T00:01:37.615Z,11.66
2018-04-10T00:01:41.916Z,11.67
2018-04-10T00:01:46.122Z,11.67
2018-04-10T00:01:50.324Z,11.67
2018-04-10T00:01:54.633Z,11.66
2018-04-10T00:01:58.615Z,11.67
2018-04-10T00:02:03.084Z,11.66
2018-04-10T00:02:07.082Z,11.66
2018-04-10T00:02:11.180Z,11.65
2018-04-10T00:02:15.416Z,11.66
2018-04-10T00:02:19.296Z,11.66
2018-04-10T00:02:23.494Z,11.66
2018-04-10T00:02:27.690Z,11.66
2018-04-10T00:02:31.893Z,11.66
2018-04-10T00:02:36.093Z,11.67
2018-04-10T00:02:40.080Z,11.66
2018-04-10T00:02:44.169Z,11.66
2018-04-10T00:02:48.153Z,11.67
2018-04-10T00:02:52.138Z,11.66
2018-04-10T00:02:56.445Z,11.66
2018-04-10T00:03:00.754Z,11.65
2018-04-10T00:03:04.847Z,11.66
2018-04-10T00:03:09.088Z,11.66
2018-04-10T00:03:12.974Z,11.67
2018-04-10T00:03:17.065Z,11.66
2018-04-10T00:03:21.151Z,11.66
2018-04-10T00:03:25.242Z,11.67
2018-04-10T00:03:29.449Z,11.66
2018-04-10T00:03:33.329Z,11.67
2018-04-10T00:03:37.636Z,11.65
2018-04-10T00:03:41.829Z,11.67
2018-04-10T00:03:45.938Z,11.66
2018-04-10T00:03:50.245Z,11.67
2018-04-10T00:03:54.446Z,11.67
2018-04-10T00:03:58.539Z,11.66
2018-04-10T00:04:02.744Z,11.66
2018-04-10T00:04:06.833Z,11.66
2018-04-10T00:04:10.822Z,11.67
2018-04-10T00:04:15.018Z,11.66
2018-04-10T00:04:19.113Z,11.67
2018-04-10T00:04:23.315Z,11.67
2018-04-10T00:04:27.417Z,11.67
2018-04-10T00:04:31.509Z,11.66
2018-04-10T00:04:35.495Z,11.67
2018-04-10T00:04:39.801Z,11.66
2018-04-10T00:04:43.997Z,11.66
2018-04-10T00:04:48.085Z,11.67
2018-04-10T00:04:52.394Z,11.66
2018-04-10T00:04:56.700Z,11.66
2018-04-10T00:05:00.686Z,11.66
2018-04-10T00:05:04.835Z,11.66
2018-04-10T00:05:08.933Z,11.66
2018-04-10T00:05:13.027Z,11.66
2018-04-10T00:05:17.336Z,11.67
2018-04-10T00:05:21.425Z,11.67
2018-04-10T00:05:25.729Z,11.67
2018-04-10T00:05:29.941Z,11.66
2018-04-10T00:05:34.257Z,11.67
2018-04-10T00:05:38.561Z,11.67
2018-04-10T00:05:42.544Z,11.66
2018-04-10T00:05:46.536Z,11.66
2018-04-10T00:05:50.639Z,11.66
2018-04-10T00:05:54.835Z,11.67
2018-04-10T00:05:59.140Z,11.67
2018-04-10T00:06:03.261Z,11.67
2018-04-10T00:06:07.146Z,11.66
2018-04-10T00:06:11.346Z,11.66
2018-04-10T00:06:15.440Z,11.67
2018-04-10T00:06:19.535Z,11.67
2018-04-10T00:06:23.842Z,11.67
2018-04-10T00:06:28.082Z,11.67
2018-04-10T00:06:32.283Z,11.66
2018-04-10T00:06:36.596Z,11.66
2018-04-10T00:06:40.700Z,11.67
2018-04-10T00:06:44.796Z,11.66
2018-04-10T00:06:48.998Z,11.67
2018-04-10T00:06:53.093Z,11.67
2018-04-10T00:06:57.300Z,11.67
2018-04-10T00:07:01.865Z,11.67
2018-04-10T00:07:05.937Z,11.67
2018-04-10T00:07:10.301Z,11.67
2018-04-10T00:07:14.503Z,11.67
2018-04-10T00:07:18.705Z,11.66
2018-04-10T00:07:22.584Z,11.66
2018-04-10T00:07:26.782Z,11.66
2018-04-10T00:07:30.987Z,11.67
2018-04-10T00:07:35.182Z,11.66
2018-04-10T00:07:39.484Z,11.66
2018-04-10T00:07:43.581Z,11.66
2018-04-10T00:07:47.782Z,11.66
2018-04-10T00:07:52.087Z,11.67
2018-04-10T00:07:56.291Z,11.67
2018-04-10T00:08:00.391Z,11.66
2018-04-10T00:08:04.583Z,11.66
2018-04-10T00:08:08.570Z,11.67
2018-04-10T00:08:12.770Z,11.67
2018-04-10T00:08:16.864Z,11.67
2018-04-10T00:08:20.749Z,11.67
2018-04-10T00:08:24.837Z,11.67
2018-04-10T00:08:29.040Z,11.67
2018-04-10T00:08:33.132Z,11.68
2018-04-10T00:08:37.335Z,11.67
2018-04-10T00:08:41.422Z,11.67
2018-04-10T00:08:45.730Z,11.67
2018-04-10T00:08:49.733Z,11.67
2018-04-10T00:08:53.720Z,11.68
2018-04-10T00:08:58.027Z,11.67
2018-04-10T00:09:02.161Z,11.67
2018-04-10T00:09:06.361Z,11.67
2018-04-10T00:09:10.569Z,11.68
2018-04-10T00:09:14.872Z,11.67
2018-04-10T00:09:19.074Z,11.67
2018-04-10T00:09:23.164Z,11.67
2018-04-10T00:09:27.151Z,11.67
2018-04-10T00:09:31.134Z,11.68
2018-04-10T00:09:35.340Z,11.67
2018-04-10T00:09:39.546Z,11.68
2018-04-10T00:09:43.426Z,11.68
2018-04-10T00:09:47.560Z,11.68
2018-04-10T00:09:51.654Z,11.68
2018-04-10T00:09:55.858Z,11.69
2018-04-10T00:10:00.058Z,11.68
2018-04-10T00:10:04.288Z,11.69
2018-04-10T00:10:08.379Z,11.68
2018-04-10T00:10:12.574Z,11.69
2018-04-10T00:10:16.770Z,11.68
2018-04-10T00:10:20.966Z,11.68
2018-04-10T00:10:25.159Z,11.69
2018-04-10T00:10:29.357Z,11.69
2018-04-10T00:10:33.236Z,11.69
2018-04-10T00:10:37.327Z,11.7
2018-04-10T00:10:41.522Z,11.69
2018-04-10T00:10:45.404Z,11.69
2018-04-10T00:10:49.499Z,11.7
2018-04-10T00:10:53.698Z,11.7
2018-04-10T00:10:57.793Z,11.7
2018-04-10T00:11:02.024Z,11.69
2018-04-10T00:11:06.114Z,11.7
2018-04-10T00:11:10.107Z,11.69
2018-04-10T00:11:14.306Z,11.7
2018-04-10T00:11:18.398Z,11.69
2018-04-10T00:11:22.702Z,11.7
2018-04-10T00:11:26.909Z,11.7
2018-04-10T00:11:31.000Z,11.69
2018-04-10T00:11:35.100Z,11.69
2018-04-10T00:11:39.296Z,11.7
2018-04-10T00:11:43.497Z,11.7
2018-04-10T00:11:47.484Z,11.7
2018-04-10T00:11:51.475Z,11.7
2018-04-10T00:11:55.787Z,11.7
2018-04-10T00:12:00.094Z,11.69
2018-04-10T00:12:04.293Z,11.7
2018-04-10T00:12:08.384Z,11.69
2018-04-10T00:12:12.602Z,11.7
2018-04-10T00:12:16.911Z,11.7
2018-04-10T00:12:21.115Z,11.69
2018-04-10T00:12:24.998Z,11.7
2018-04-10T00:12:29.196Z,11.7
2018-04-10T00:12:33.179Z,11.71
2018-04-10T00:12:37.379Z,11.69
2018-04-10T00:12:41.580Z,11.7
2018-04-10T00:12:45.789Z,11.7
2018-04-10T00:12:49.673Z,11.7
2018-04-10T00:12:53.765Z,11.71
2018-04-10T00:12:57.860Z,11.7
2018-04-10T00:13:02.213Z,11.7
2018-04-10T00:13:06.410Z,11.7
2018-04-10T00:13:10.398Z,11.7
2018-04-10T00:13:14.601Z,11.7
2018-04-10T00:13:18.584Z,11.7
2018-04-10T00:13:22.783Z,11.7
2018-04-10T00:13:26.771Z,11.71
2018-04-10T00:13:30.970Z,11.7
2018-04-10T00:13:35.062Z,11.7
2018-04-10T00:13:39.046Z,11.7
2018-04-10T00:13:43.145Z,11.71
2018-04-10T00:13:47.455Z,11.7
2018-04-10T00:13:51.650Z,11.7
2018-04-10T00:13:55.951Z,11.7
2018-04-10T00:14:00.153Z,11.7
2018-04-10T00:14:04.486Z,11.7
2018-04-10T00:14:08.788Z,11.71
2018-04-10T00:14:12.774Z,11.7
2018-04-10T00:14:16.976Z,11.7
2018-04-10T00:14:21.071Z,11.69
2018-04-10T00:14:25.165Z,11.7
2018-04-10T00:14:29.365Z,11.7
2018-04-10T00:14:33.561Z,11.71
2018-04-10T00:14:37.751Z,11.71
2018-04-10T00:14:41.951Z,11.71
2018-04-10T00:14:46.150Z,11.69
2018-04-10T00:14:50.240Z,11.71
2018-04-10T00:14:54.544Z,11.7
2018-04-10T00:14:58.528Z,11.7
2018-04-10T00:15:02.623Z,11.71
2018-04-10T00:15:06.725Z,11.7
2018-04-10T00:15:10.929Z,11.7
2018-04-10T00:15:14.810Z,11.7
2018-04-10T00:15:18.794Z,11.7
2018-04-10T00:15:22.994Z,11.69
2018-04-10T00:15:27.188Z,11.69
2018-04-10T00:15:31.290Z,11.71
2018-04-10T00:15:35.275Z,11.7
2018-04-10T00:15:39.370Z,11.7
2018-04-10T00:15:43.461Z,11.69
2018-04-10T00:15:47.342Z,11.7
2018-04-10T00:15:51.542Z,11.7
2018-04-10T00:15:55.751Z,11.7
2018-04-10T00:15:59.963Z,11.7
2018-04-10T00:16:04.161Z,11.69
2018-04-10T00:16:08.357Z,11.69
2018-04-10T00:16:12.554Z,11.7
2018-04-10T00:16:16.757Z,11.7
2018-04-10T00:16:20.946Z,11.7
2018-04-10T00:16:25.075Z,11.69
2018-04-10T00:16:29.165Z,11.7
2018-04-10T00:16:33.475Z,11.7
2018-04-10T00:16:37.352Z,11.7
2018-04-10T00:16:41.339Z,11.69
2018-04-10T00:16:45.545Z,11.7
2018-04-10T00:16:49.631Z,11.69
2018-04-10T00:16:53.719Z,11.69
2018-04-10T00:16:57.821Z,11.69
2018-04-10T00:17:01.802Z,11.69
2018-04-10T00:17:05.839Z,11.69
2018-04-10T00:17:10.045Z,11.69
2018-04-10T00:17:14.347Z,11.7
2018-04-10T00:17:18.541Z,11.69
2018-04-10T00:17:22.857Z,11.69
2018-04-10T00:17:26.954Z,11.69
2018-04-10T00:17:30.935Z,11.69
2018-04-10T00:17:35.029Z,11.69
2018-04-10T00:17:39.337Z,11.69
2018-04-10T00:17:43.424Z,11.69
2018-04-10T00:17:47.617Z,11.68
2018-04-10T00:17:51.957Z,11.68
2018-04-10T00:17:56.053Z,11.69
2018-04-10T00:18:00.252Z,11.68
2018-04-10T00:18:04.605Z,11.69
2018-04-10T00:18:08.697Z,11.69
2018-04-10T00:18:13.003Z,11.68
2018-04-10T00:18:17.205Z,11.7
2018-04-10T00:18:21.508Z,11.69
2018-04-10T00:18:25.602Z,11.69
2018-04-10T00:18:29.699Z,11.68
2018-04-10T00:18:33.795Z,11.68
2018-04-10T00:18:38.003Z,11.68
2018-04-10T00:18:42.199Z,11.68
2018-04-10T00:18:46.516Z,11.69
2018-04-10T00:18:50.610Z,11.69
2018-04-10T00:18:54.913Z,11.69
2018-04-10T00:18:59.108Z,11.68
2018-04-10T00:19:02.882Z,11.68
2018-04-10T00:19:07.183Z,11.69
2018-04-10T00:19:11.490Z,11.67
2018-04-10T00:19:15.582Z,11.68
2018-04-10T00:19:19.889Z,11.68
2018-04-10T00:19:24.085Z,11.68
2018-04-10T00:19:27.968Z,11.69
2018-04-10T00:19:32.058Z,11.68
2018-04-10T00:19:36.254Z,11.68
2018-04-10T00:19:40.565Z,11.68
2018-04-10T00:19:44.876Z,11.68
2018-04-10T00:19:49.067Z,11.69
2018-04-10T00:19:53.370Z,11.68
2018-04-10T00:19:57.468Z,11.68
2018-04-10T00:20:01.662Z,11.68
2018-04-10T00:20:05.905Z,11.68
2018-04-10T00:20:10.104Z,11.68
2018-04-10T00:20:14.311Z,11.68
2018-04-10T00:20:18.401Z,11.67
2018-04-10T00:20:22.493Z,11.68
2018-04-10T00:20:26.582Z,11.68
2018-04-10T00:20:30.787Z,11.68
2018-04-10T00:20:35.094Z,11.67
2018-04-10T00:20:39.291Z,11.68
2018-04-10T00:20:43.500Z,11.68
2018-04-10T00:20:47.701Z,11.68
2018-04-10T00:20:51.793Z,11.68
2018-04-10T00:20:56.095Z,11.67
2018-04-10T00:21:00.081Z,11.69
2018-04-10T00:21:03.904Z,11.68
2018-04-10T00:21:07.894Z,11.68
2018-04-10T00:21:11.985Z,11.69
2018-04-10T00:21:16.292Z,11.68
2018-04-10T00:21:20.393Z,11.68
2018-04-10T00:21:24.376Z,11.68
2018-04-10T00:21:28.571Z,11.69
2018-04-10T00:21:32.806Z,11.68
2018-04-10T00:21:37.006Z,11.68
2018-04-10T00:21:41.305Z,11.68
2018-04-10T00:21:45.397Z,11.68
2018-04-10T00:21:49.699Z,11.69
2018-04-10T00:21:53.895Z,11.68
2018-04-10T00:21:58.097Z,11.68
2018-04-10T00:22:02.397Z,11.69
2018-04-10T00:22:06.382Z,11.68
2018-04-10T00:22:10.590Z,11.68
2018-04-10T00:22:14.793Z,11.68
2018-04-10T00:22:19.096Z,11.68
2018-04-10T00:22:22.978Z,11.69
2018-04-10T00:22:27.177Z,11.68
2018-04-10T00:22:31.265Z,11.68
2018-04-10T00:22:35.464Z,11.69
2018-04-10T00:22:39.774Z,11.69
2018-04-10T00:22:43.978Z,11.69
2018-04-10T00:22:48.074Z,11.68
2018-04-10T00:22:52.272Z,11.69
2018-04-10T00:22:56.475Z,11.69
2018-04-10T00:23:00.673Z,11.69
2018-04-10T00:23:05.115Z,11.7
2018-04-10T00:23:09.205Z,11.69
2018-04-10T00:23:13.406Z,11.69
2018-04-10T00:23:17.502Z,11.69
2018-04-10T00:23:21.701Z,11.7
2018-04-10T00:23:26.001Z,11.69
2018-04-10T00:23:30.092Z,11.7
2018-04-10T00:23:34.394Z,11.69
2018-04-10T00:23:38.593Z,11.7
2018-04-10T00:23:42.470Z,11.7
2018-04-10T00:23:46.773Z,11.68
2018-04-10T00:23:50.981Z,11.69
2018-04-10T00:23:54.974Z,11.7
2018-04-10T00:23:58.966Z,11.69
2018-04-10T00:24:03.268Z,11.68
2018-04-10T00:24:07.467Z,11.7
2018-04-10T00:24:11.349Z,11.7
2018-04-10T00:24:15.664Z,11.7
2018-04-10T00:24:19.757Z,11.69
2018-04-10T00:24:23.745Z,11.7
2018-04-10T00:24:27.961Z,11.69
2018-04-10T00:24:32.054Z,11.7
2018-04-10T00:24:36.152Z,11.69
2018-04-10T00:24:40.349Z,11.7
2018-04-10T00:24:44.448Z,11.69
2018-04-10T00:24:48.791Z,11.7
2018-04-10T00:24:52.885Z,11.69
2018-04-10T00:24:57.188Z,11.7
2018-04-10T00:25:01.386Z,11.69
2018-04-10T00:25:05.483Z,11.69
2018-04-10T00:25:09.677Z,11.69
2018-04-10T00:25:13.880Z,11.69
2018-04-10T00:25:18.185Z,11.69
2018-04-10T00:25:22.276Z,11.69
2018-04-10T00:25:26.578Z,11.7
2018-04-10T00:25:30.704Z,11.7
2018-04-10T00:25:34.796Z,11.7
2018-04-10T00:25:38.991Z,11.7
2018-04-10T00:25:43.082Z,11.69
2018-04-10T00:25:47.392Z,11.7
2018-04-10T00:25:51.379Z,11.7
2018-04-10T00:25:55.577Z,11.7
2018-04-10T00:25:59.788Z,11.7
2018-04-10T00:26:04.032Z,11.71
2018-04-10T00:26:07.912Z,11.7
2018-04-10T00:26:12.008Z,11.7
2018-04-10T00:26:16.103Z,11.71
2018-04-10T00:26:20.198Z,11.71
2018-04-10T00:26:24.395Z,11.7
2018-04-10T00:26:28.516Z,11.71
2018-04-10T00:26:32.713Z,11.71
2018-04-10T00:26:36.807Z,11.71
2018-04-10T00:26:40.791Z,11.7
2018-04-10T00:26:44.879Z,11.71
2018-04-10T00:26:49.198Z,11.71
2018-04-10T00:26:53.395Z,11.71
2018-04-10T00:26:57.493Z,11.71
2018-04-10T00:27:01.692Z,11.71
2018-04-10T00:27:05.787Z,11.71
2018-04-10T00:27:09.668Z,11.71
2018-04-10T00:27:13.757Z,11.71
2018-04-10T00:27:17.950Z,11.7
2018-04-10T00:27:22.254Z,11.71
2018-04-10T00:27:26.448Z,11.71
2018-04-10T00:27:30.642Z,11.71
2018-04-10T00:27:34.626Z,11.71
2018-04-10T00:27:38.716Z,11.71
2018-04-10T00:27:43.017Z,11.71
2018-04-10T00:27:47.111Z,11.72
2018-04-10T00:27:51.316Z,11.71
2018-04-10T00:27:55.623Z,11.71
2018-04-10T00:27:59.817Z,11.71
2018-04-10T00:28:04.018Z,11.72
2018-04-10T00:28:08.219Z,11.71
2018-04-10T00:28:12.415Z,11.71
2018-04-10T00:28:16.611Z,11.71
2018-04-10T00:28:20.833Z,11.71
2018-04-10T00:28:24.931Z,11.72
2018-04-10T00:28:29.135Z,11.72
2018-04-10T00:28:33.130Z,11.73
2018-04-10T00:28:37.435Z,11.72
2018-04-10T00:28:41.641Z,11.71
2018-04-10T00:28:45.743Z,11.72
2018-04-10T00:28:49.735Z,11.72
2018-04-10T00:28:53.725Z,11.72
2018-04-10T00:28:58.050Z,11.72
2018-04-10T00:29:02.031Z,11.71
2018-04-10T00:29:06.018Z,11.73
2018-04-10T00:29:10.110Z,11.72
2018-04-10T00:29:14.205Z,11.73
2018-04-10T00:29:18.089Z,11.72
2018-04-10T00:29:22.184Z,11.72
2018-04-10T00:29:26.281Z,11.72
2018-04-10T00:29:30.375Z,11.73
2018-04-10T00:29:34.571Z,11.72
2018-04-10T00:29:38.775Z,11.73
2018-04-10T00:29:42.874Z,11.72
2018-04-10T00:29:47.073Z,11.73
2018-04-10T00:29:51.382Z,11.73
2018-04-10T00:29:55.688Z,11.73
2018-04-10T00:29:59.921Z,11.72
2018-04-10T00:30:04.215Z,11.73
2018-04-10T00:30:08.324Z,11.74
2018-04-10T00:30:12.642Z,11.73
2018-04-10T00:30:16.838Z,11.73
2018-04-10T00:30:20.933Z,11.72
2018-04-10T00:30:25.140Z,11.73
2018-04-10T00:30:29.339Z,11.73
2018-04-10T00:30:33.434Z,11.73
2018-04-10T00:30:37.635Z,11.72
2018-04-10T00:30:41.860Z,11.72
2018-04-10T00:30:45.953Z,11.73
2018-04-10T00:30:50.156Z,11.73
2018-04-10T00:30:54.355Z,11.74
2018-04-10T00:30:58.574Z,11.73
2018-04-10T00:31:03.028Z,11.74
2018-04-10T00:31:07.134Z,11.74
2018-04-10T00:31:11.436Z,11.74
2018-04-10T00:31:15.527Z,11.73
2018-04-10T00:31:19.741Z,11.74
2018-04-10T00:31:23.946Z,11.74
2018-04-10T00:31:28.035Z,11.74
2018-04-10T00:31:32.339Z,11.74
2018-04-10T00:31:36.432Z,11.74
2018-04-10T00:31:40.420Z,11.74
2018-04-10T00:31:44.622Z,11.74
2018-04-10T00:31:48.606Z,11.74
2018-04-10T00:31:52.803Z,11.74
2018-04-10T00:31:57.001Z,11.75
2018-04-10T00:32:01.097Z,11.74
2018-04-10T00:32:05.438Z,11.74
2018-04-10T00:32:09.429Z,11.74
2018-04-10T00:32:13.526Z,11.74
2018-04-10T00:32:17.729Z,11.75
2018-04-10T00:32:21.929Z,11.74
2018-04-10T00:32:26.025Z,11.74
2018-04-10T00:32:30.013Z,11.74
2018-04-10T00:32:34.106Z,11.74
2018-04-10T00:32:38.343Z,11.74
2018-04-10T00:32:42.432Z,11.75
2018-04-10T00:32:46.524Z,11.74
2018-04-10T00:32:50.719Z,11.75
2018-04-10T00:32:54.914Z,11.74
2018-04-10T00:32:59.223Z,11.75
2018-04-10T00:33:03.613Z,11.75
2018-04-10T00:33:07.811Z,11.75
2018-04-10T00:33:11.918Z,11.74
2018-04-10T00:33:15.908Z,11.75
2018-04-10T00:33:19.893Z,11.75
2018-04-10T00:33:23.991Z,11.75
2018-04-10T00:33:28.080Z,11.74
2018-04-10T00:33:32.169Z,11.75
2018-04-10T00:33:36.362Z,11.75
2018-04-10T00:33:40.348Z,11.75
2018-04-10T00:33:44.647Z,11.75
2018-04-10T00:33:48.737Z,11.75
2018-04-10T00:33:52.836Z,11.75
2018-04-10T00:33:56.925Z,11.75
2018-04-10T00:34:01.226Z,11.75
2018-04-10T00:34:05.319Z,11.75
2018-04-10T00:34:09.626Z,11.74
2018-04-10T00:34:13.936Z,11.75
2018-04-10T00:34:18.026Z,11.75
2018-04-10T00:34:22.346Z,11.75
2018-04-10T00:34:26.438Z,11.75
2018-04-10T00:34:30.743Z,11.75
2018-04-10T00:34:35.047Z,11.76
2018-04-10T00:34:39.136Z,11.75
2018-04-10T00:34:43.335Z,11.75
2018-04-10T00:34:47.532Z,11.75
2018-04-10T00:34:51.829Z,11.76
2018-04-10T00:34:56.026Z,11.75
2018-04-10T00:35:00.226Z,11.75
2018-04-10T00:35:04.480Z,11.76
2018-04-10T00:35:08.571Z,11.76
2018-04-10T00:35:12.871Z,11.75
2018-04-10T00:35:17.084Z,11.75
2018-04-10T00:35:21.387Z,11.75
2018-04-10T00:35:25.705Z,11.76
2018-04-10T00:35:29.802Z,11.75
2018-04-10T00:35:33.894Z,11.76
2018-04-10T00:35:38.200Z,11.75
2018-04-10T00:35:42.401Z,11.76
2018-04-10T00:35:46.493Z,11.75
2018-04-10T00:35:50.804Z,11.75
2018-04-10T00:35:55.105Z,11.76
2018-04-10T00:35:59.308Z,11.76
2018-04-10T00:36:03.868Z,11.75
2018-04-10T00:36:07.750Z,11.75
2018-04-10T00:36:11.949Z,11.76
2018-04-10T00:36:16.260Z,11.75
2018-04-10T00:36:20.573Z,11.76
2018-04-10T00:36:24.662Z,11.76
2018-04-10T00:36:28.859Z,11.76
2018-04-10T00:36:33.166Z,11.75
2018-04-10T00:36:37.255Z,11.75
2018-04-10T00:36:41.349Z,11.76
2018-04-10T00:36:45.549Z,11.76
2018-04-10T00:36:49.532Z,11.74
2018-04-10T00:36:53.734Z,11.76
2018-04-10T00:36:57.722Z,11.76
2018-04-10T00:37:02.027Z,11.76
2018-04-10T00:37:06.329Z,11.76
2018-04-10T00:37:10.532Z,11.76
2018-04-10T00:37:14.723Z,11.76
2018-04-10T00:37:18.746Z,11.76
2018-04-10T00:37:22.950Z,11.75
2018-04-10T00:37:27.043Z,11.76
2018-04-10T00:37:31.242Z,11.76
2018-04-10T00:37:35.440Z,11.75
2018-04-10T00:37:39.745Z,11.76
2018-04-10T00:37:43.829Z,11.75
2018-04-10T00:37:48.138Z,11.75
2018-04-10T00:37:52.333Z,11.75
2018-04-10T00:37:56.533Z,11.75
2018-04-10T00:38:00.842Z,11.76
2018-04-10T00:38:05.206Z,11.74
2018-04-10T00:38:09.407Z,11.75
2018-04-10T00:38:13.607Z,11.75
2018-04-10T00:38:17.701Z,11.75
2018-04-10T00:38:21.791Z,11.76
2018-04-10T00:38:26.098Z,11.75
2018-04-10T00:38:30.086Z,11.75
2018-04-10T00:38:34.181Z,11.75
2018-04-10T00:38:38.276Z,11.75
2018-04-10T00:38:42.476Z,11.75
2018-04-10T00:38:46.775Z,11.74
2018-04-10T00:38:50.758Z,11.75
2018-04-10T00:38:55.064Z,11.74
2018-04-10T00:38:59.264Z,11.74
2018-04-10T00:39:03.459Z,11.73
2018-04-10T00:39:07.450Z,11.74
2018-04-10T00:39:11.755Z,11.73
2018-04-10T00:39:15.958Z,11.74
2018-04-10T00:39:20.055Z,11.72
2018-04-10T00:39:24.049Z,11.74
2018-04-10T00:39:27.933Z,11.74
2018-04-10T00:39:32.237Z,11.72
2018-04-10T00:39:36.544Z,11.73
2018-04-10T00:39:40.536Z,11.73
2018-04-10T00:39:44.843Z,11.73
2018-04-10T00:39:49.145Z,11.73
2018-04-10T00:39:53.234Z,11.72
2018-04-10T00:39:57.335Z,11.72
2018-04-10T00:40:01.538Z,11.71
2018-04-10T00:40:05.959Z,11.72
2018-04-10T00:40:10.048Z,11.71
2018-04-10T00:40:14.135Z,11.71
2018-04-10T00:40:18.439Z,11.72
2018-04-10T00:40:22.741Z,11.72
2018-04-10T00:40:26.871Z,11.71
2018-04-10T00:40:31.178Z,11.71
2018-04-10T00:40:35.482Z,11.71
2018-04-10T00:40:39.684Z,11.71
2018-04-10T00:40:43.992Z,11.71
2018-04-10T00:40:48.091Z,11.71
2018-04-10T00:40:52.178Z,11.71
2018-04-10T00:40:56.161Z,11.71
2018-04-10T00:41:00.251Z,11.71
2018-04-10T00:41:04.331Z,11.71
2018-04-10T00:41:08.317Z,11.7
2018-04-10T00:41:12.525Z,11.7
2018-04-10T00:41:16.724Z,11.7
2018-04-10T00:41:20.715Z,11.7
2018-04-10T00:41:24.806Z,11.69
2018-04-10T00:41:28.902Z,11.69
2018-04-10T00:41:33.100Z,11.7
2018-04-10T00:41:37.200Z,11.7
2018-04-10T00:41:41.397Z,11.69
2018-04-10T00:41:45.595Z,11.7
2018-04-10T00:41:49.935Z,11.7
2018-04-10T00:41:54.023Z,11.69
2018-04-10T00:41:58.224Z,11.69
2018-04-10T00:42:02.432Z,11.69
2018-04-10T00:42:06.525Z,11.69
2018-04-10T00:42:10.511Z,11.69
2018-04-10T00:42:14.391Z,11.68
2018-04-10T00:42:18.596Z,11.69
2018-04-10T00:42:22.907Z,11.68
2018-04-10T00:42:26.888Z,11.69
2018-04-10T00:42:30.876Z,11.69
2018-04-10T00:42:35.180Z,11.69
2018-04-10T00:42:39.273Z,11.69
2018-04-10T00:42:43.151Z,11.68
2018-04-10T00:42:47.462Z,11.68
2018-04-10T00:42:51.447Z,11.68
2018-04-10T00:42:55.760Z,11.68
2018-04-10T00:43:00.065Z,11.68
2018-04-10T00:43:04.071Z,11.68
2018-04-10T00:43:08.264Z,11.68
2018-04-10T00:43:12.142Z,11.67
2018-04-10T00:43:16.238Z,11.67
2018-04-10T00:43:20.124Z,11.67
2018-04-10T00:43:24.253Z,11.66
2018-04-10T00:43:28.452Z,11.67
2018-04-10T00:43:32.655Z,11.67
2018-04-10T00:43:36.754Z,11.67
2018-04-10T00:43:41.060Z,11.67
2018-04-10T00:43:45.251Z,11.67
2018-04-10T00:43:49.444Z,11.67
2018-04-10T00:43:53.641Z,11.66
2018-04-10T00:43:57.956Z,11.67
2018-04-10T00:44:02.160Z,11.65
2018-04-10T00:44:06.360Z,11.67
2018-04-10T00:44:10.559Z,11.66
2018-04-10T00:44:14.754Z,11.67
2018-04-10T00:44:18.847Z,11.67
2018-04-10T00:44:23.046Z,11.66
2018-04-10T00:44:27.248Z,11.66
2018-04-10T00:44:31.556Z,11.65
2018-04-10T00:44:35.792Z,11.65
2018-04-10T00:44:39.847Z,11.66
2018-04-10T00:44:44.046Z,11.65
2018-04-10T00:44:48.140Z,11.66
2018-04-10T00:44:52.447Z,11.66
2018-04-10T00:44:56.431Z,11.66
2018-04-10T00:45:00.639Z,11.65
2018-04-10T00:45:04.944Z,11.64
2018-04-10T00:45:09.143Z,11.64
2018-04-10T00:45:13.344Z,11.65
2018-04-10T00:45:17.445Z,11.64
2018-04-10T00:45:21.639Z,11.64
2018-04-10T00:45:25.519Z,11.65
2018-04-10T00:45:29.610Z,11.64
2018-04-10T00:45:33.697Z,11.63
2018-04-10T00:45:38.005Z,11.63
2018-04-10T00:45:42.201Z,11.63
2018-04-10T00:45:46.401Z,11.63
2018-04-10T00:45:50.385Z,11.63
2018-04-10T00:45:54.476Z,11.63
2018-04-10T00:45:58.568Z,11.63
2018-04-10T00:46:02.764Z,11.62
2018-04-10T00:46:06.863Z,11.62
2018-04-10T00:46:10.859Z,11.62
2018-04-10T00:46:14.844Z,11.61
2018-04-10T00:46:19.160Z,11.61
2018-04-10T00:46:23.470Z,11.61
2018-04-10T00:46:27.572Z,11.62
2018-04-10T00:46:31.579Z,11.61
2018-04-10T00:46:35.783Z,11.6
2018-04-10T00:46:39.881Z,11.6
2018-04-10T00:46:44.079Z,11.61
2018-04-10T00:46:48.066Z,11.61
2018-04-10T00:46:52.156Z,11.61
2018-04-10T00:46:56.249Z,11.6
2018-04-10T00:47:00.339Z,11.6
2018-04-10T00:47:04.633Z,11.59
2018-04-10T00:47:08.941Z,11.59
2018-04-10T00:47:13.139Z,11.59
2018-04-10T00:47:17.333Z,11.59
2018-04-10T00:47:21.435Z,11.58
2018-04-10T00:47:25.636Z,11.59
2018-04-10T00:47:29.618Z,11.58
2018-04-10T00:47:33.705Z,11.58
2018-04-10T00:47:38.011Z,11.57
2018-04-10T00:47:41.994Z,11.57
2018-04-10T00:47:46.091Z,11.57
2018-04-10T00:47:50.286Z,11.57
2018-04-10T00:47:54.383Z,11.56
2018-04-10T00:47:58.366Z,11.56
2018-04-10T00:48:02.664Z,11.56
2018-04-10T00:48:06.767Z,11.56
2018-04-10T00:48:10.862Z,11.56
2018-04-10T00:48:15.059Z,11.55
2018-04-10T00:48:19.363Z,11.54
2018-04-10T00:48:23.566Z,11.54
2018-04-10T00:48:27.769Z,11.54
2018-04-10T00:48:32.002Z,11.53
2018-04-10T00:48:36.331Z,11.55
2018-04-10T00:48:40.533Z,11.53
2018-04-10T00:48:44.732Z,11.53
2018-04-10T00:48:48.824Z,11.52
2018-04-10T00:48:53.029Z,11.53
2018-04-10T00:48:57.231Z,11.52
2018-04-10T00:49:01.586Z,11.51
2018-04-10T00:49:05.573Z,11.52
2018-04-10T00:49:09.663Z,11.52
2018-04-10T00:49:13.863Z,11.51
2018-04-10T00:49:18.059Z,11.5
2018-04-10T00:49:22.156Z,11.51
2018-04-10T00:49:26.368Z,11.51
2018-04-10T00:49:30.461Z,11.49
2018-04-10T00:49:34.657Z,11.5
2018-04-10T00:49:38.961Z,11.49
2018-04-10T00:49:43.178Z,11.48
2018-04-10T00:49:47.279Z,11.49
2018-04-10T00:49:51.588Z,11.49
2018-04-10T00:49:55.926Z,11.49
2018-04-10T00:50:00.237Z,11.48
2018-04-10T00:50:04.012Z,11.47
2018-04-10T00:50:08.111Z,11.47
2018-04-10T00:50:12.200Z,11.47
2018-04-10T00:50:16.503Z,11.46
2018-04-10T00:50:20.501Z,11.46
2018-04-10T00:50:24.524Z,11.46
2018-04-10T00:50:28.722Z,11.46
2018-04-10T00:50:32.811Z,11.46
2018-04-10T00:50:37.014Z,11.45
2018-04-10T00:50:41.213Z,11.45
2018-04-10T00:50:45.308Z,11.45
2018-04-10T00:50:49.505Z,11.44
2018-04-10T00:50:53.718Z,11.44
2018-04-10T00:50:57.922Z,11.44
2018-04-10T00:51:02.015Z,11.43
2018-04-10T00:51:06.109Z,11.43
2018-04-10T00:51:10.306Z,11.43
2018-04-10T00:51:14.504Z,11.43
2018-04-10T00:51:18.700Z,11.42
2018-04-10T00:51:22.899Z,11.41
2018-04-10T00:51:26.990Z,11.42
2018-04-10T00:51:31.078Z,11.42
2018-04-10T00:51:35.173Z,11.41
2018-04-10T00:51:39.263Z,11.41
2018-04-10T00:51:43.257Z,11.41
2018-04-10T00:51:47.350Z,11.41
2018-04-10T00:51:51.437Z,11.4
2018-04-10T00:51:55.739Z,11.4
2018-04-10T00:51:59.939Z,11.4
2018-04-10T00:52:03.817Z,11.39
2018-04-10T00:52:07.911Z,11.39
2018-04-10T00:52:11.897Z,11.39
2018-04-10T00:52:15.991Z,11.38
2018-04-10T00:52:20.089Z,11.38
2018-04-10T00:52:24.386Z,11.39
2018-04-10T00:52:28.476Z,11.37
2018-04-10T00:52:32.565Z,11.37
2018-04-10T00:52:36.658Z,11.36
2018-04-10T00:52:40.748Z,11.37
2018-04-10T00:52:45.063Z,11.37
2018-04-10T00:52:49.258Z,11.37
2018-04-10T00:52:53.569Z,11.36
2018-04-10T00:52:57.763Z,11.35
2018-04-10T00:53:02.380Z,11.35
2018-04-10T00:53:06.472Z,11.35
2018-04-10T00:53:10.671Z,11.35
2018-04-10T00:53:14.656Z,11.35
2018-04-10T00:53:18.638Z,11.35
2018-04-10T00:53:22.830Z,11.34
2018-04-10T00:53:27.026Z,11.34
2018-04-10T00:53:31.118Z,11.33
2018-04-10T00:53:35.221Z,11.33
2018-04-10T00:53:39.309Z,11.34
2018-04-10T00:53:43.609Z,11.33
2018-04-10T00:53:47.807Z,11.34